Time;durP1;ratioP1;P1;durP2;ratioP2;P2;SDS_P1;SDS_P2;PMS_P1;PMS_P2;Temp;Humidity;BMP_temperature;BMP_pressure;BME280_temperature;BME280_humidity;BME280_pressure;Samples;Min_cycle;Max_cycle;Signal;HPM_P1;HPM_P2
2024/01/24 00:00:34;;;;;;;26.20;16.80;;;;;;;-0.54;96.17;100511.17;107364;1252;71676;-80
2024/01/24 00:03:02;;;;;;;26.80;17.10;;;;;;;-0.52;96.22;100505.66;108779;1253;59569;-77
2024/01/24 00:05:29;;;;;;;23.50;15.50;;;;;;;-0.48;96.08;100503.89;108341;1257;59296;-76
2024/01/24 00:07:57;;;;;;;23.40;16.90;;;;;;;-0.45;96.17;100511.21;107991;1253;72400;-79
2024/01/24 00:10:25;;;;;;;22.70;16.50;;;;;;;-0.50;96.37;100510.04;108516;1254;70814;-80
2024/01/24 00:12:55;;;;;;;21.60;15.70;;;;;;;-0.46;96.17;100508.50;108643;1254;71392;-80
2024/01/24 00:15:22;;;;;;;21.50;15.80;;;;;;;-0.41;96.04;100503.00;107853;1254;60501;-81
2024/01/24 00:17:50;;;;;;;27.20;17.60;;;;;;;-0.44;96.19;100504.67;106987;1256;59244;-80
2024/01/24 00:20:18;;;;;;;22.70;16.70;;;;;;;-0.49;96.36;100503.75;107327;1254;73805;-79
2024/01/24 00:22:46;;;;;;;26.50;17.00;;;;;;;-0.46;96.33;100500.96;106009;1254;69940;-81
2024/01/24 00:25:13;;;;;;;24.60;16.80;;;;;;;-0.44;96.28;100503.29;105896;1254;72733;-79
2024/01/24 00:27:41;;;;;;;27.00;16.60;;;;;;;-0.43;96.35;100500.50;105794;1259;61028;-80
2024/01/24 00:30:09;;;;;;;24.30;18.10;;;;;;;-0.44;96.41;100500.36;105903;1254;60520;-80
2024/01/24 00:32:37;;;;;;;24.60;17.80;;;;;;;-0.50;96.78;100507.64;105955;1254;72639;-81
2024/01/24 00:35:05;;;;;;;25.20;17.20;;;;;;;-0.55;97.08;100504.07;105884;1254;70694;-81
2024/01/24 00:37:32;;;;;;;25.80;17.30;;;;;;;-0.50;97.24;100503.48;105795;1254;70882;-81
2024/01/24 00:40:00;;;;;;;27.10;19.20;;;;;;;-0.49;97.26;100500.08;105943;1253;60469;-80
2024/01/24 00:42:27;;;;;;;25.30;17.50;;;;;;;-0.53;97.31;100496.14;105911;1254;60506;-82
2024/01/24 00:44:55;;;;;;;27.10;15.70;;;;;;;-0.52;97.24;100496.77;106819;1254;72586;-80
2024/01/24 00:47:22;;;;;;;21.80;15.70;;;;;;;-0.47;97.21;100490.61;106437;1254;70024;-81
2024/01/24 00:49:50;;;;;;;27.10;17.00;;;;;;;-0.46;97.37;100488.98;106254;1257;71511;-81
2024/01/24 00:52:17;;;;;;;25.30;16.50;;;;;;;-0.51;97.38;100494.13;105926;1254;60523;-81
2024/01/24 00:54:45;;;;;;;24.70;17.50;;;;;;;-0.51;97.70;100497.77;106794;1254;60498;-84
2024/01/24 00:57:13;;;;;;;25.10;17.50;;;;;;;-0.45;97.55;100495.91;108139;1252;75237;-81
2024/01/24 00:59:40;;;;;;;26.40;17.10;;;;;;;-0.42;97.37;100494.16;108792;1253;70122;-81
2024/01/24 01:02:08;;;;;;;26.10;17.10;;;;;;;-0.46;97.57;100488.45;108635;1252;71277;-82
2024/01/24 01:04:36;;;;;;;26.70;17.90;;;;;;;-0.45;97.73;100487.54;107224;1257;60501;-83
2024/01/24 01:07:04;;;;;;;23.30;16.70;;;;;;;-0.38;97.58;100480.73;106871;1252;60418;-82
2024/01/24 01:09:32;;;;;;;30.60;19.50;;;;;;;-0.39;97.57;100476.41;106451;1256;72881;-82
2024/01/24 01:11:59;;;;;;;26.60;17.80;;;;;;;-0.44;97.58;100479.15;105841;1254;68953;-81
2024/01/24 01:14:27;;;;;;;23.60;15.50;;;;;;;-0.41;97.49;100476.73;105724;1259;73245;-81
2024/01/24 01:16:54;;;;;;;22.90;16.30;;;;;;;-0.38;97.42;100480.38;105962;1254;60409;-79
2024/01/24 01:19:22;;;;;;;25.60;17.30;;;;;;;-0.41;97.68;100476.88;105928;1257;60348;-81
2024/01/24 01:21:49;;;;;;;23.70;16.30;;;;;;;-0.48;97.81;100480.21;106023;1254;72618;-79
2024/01/24 01:24:17;;;;;;;23.70;16.60;;;;;;;-0.46;97.75;100481.65;106720;1254;70822;-80
2024/01/24 01:26:44;;;;;;;25.50;17.70;;;;;;;-0.42;97.74;100484.27;106145;1254;72723;-77
2024/01/24 01:29:12;;;;;;;21.10;16.10;;;;;;;-0.40;97.80;100478.55;105900;1254;61325;-81
2024/01/24 01:31:39;;;;;;;24.60;17.00;;;;;;;-0.40;97.89;100473.00;105835;1253;60469;-79
2024/01/24 01:34:07;;;;;;;24.60;17.80;;;;;;;-0.46;98.13;100473.64;105800;1254;73469;-78
2024/01/24 01:36:35;;;;;;;22.00;15.40;;;;;;;-0.42;97.97;100471.39;105915;1253;70353;-79
2024/01/24 01:39:04;;;;;;;23.00;16.40;;;;;;;-0.36;97.87;100469.34;105822;1254;72645;-81
2024/01/24 01:41:31;;;;;;;28.60;18.70;;;;;;;-0.39;97.87;100466.67;105905;1254;60491;-81
2024/01/24 01:43:59;;;;;;;27.20;18.50;;;;;;;-0.42;98.11;100465.08;106263;1254;60626;-82
2024/01/24 01:46:27;;;;;;;28.30;18.40;;;;;;;-0.35;97.80;100465.23;106326;1252;74851;-80
2024/01/24 01:48:58;;;;;;;26.80;18.60;;;;;;;-0.31;97.63;100468.72;106496;1253;70393;-82
2024/01/24 01:51:26;;;;;;;26.30;17.20;;;;;;;-0.37;98.03;100463.97;107288;1259;71405;-78
2024/01/24 01:53:53;;;;;;;24.90;16.10;;;;;;;-0.33;97.93;100465.02;107563;1252;60393;-80
2024/01/24 01:56:21;;;;;;;29.20;18.70;;;;;;;-0.28;97.83;100467.34;108580;1252;60402;-80
2024/01/24 01:58:48;;;;;;;25.80;17.30;;;;;;;-0.26;97.77;100463.55;108752;1253;72626;-80
2024/01/24 02:01:16;;;;;;;27.30;19.30;;;;;;;-0.27;97.99;100466.22;108343;1254;71602;-80
2024/01/24 02:03:47;;;;;;;24.80;16.90;;;;;;;-0.33;98.16;100469.84;107370;1252;73886;-81
2024/01/24 02:06:15;;;;;;;26.00;18.60;;;;;;;-0.30;98.28;100470.05;106533;1261;60421;-78
2024/01/24 02:08:43;;;;;;;29.70;19.10;;;;;;;-0.22;98.33;100474.31;105881;1257;60367;-79
2024/01/24 02:11:11;;;;;;;28.30;19.40;;;;;;;-0.24;98.18;100472.48;105754;1254;73909;-79
2024/01/24 02:13:39;;;;;;;27.70;19.90;;;;;;;-0.29;98.39;100462.30;105856;1257;70519;-80
2024/01/24 02:16:07;;;;;;;30.50;19.00;;;;;;;-0.23;98.16;100461.32;105795;1254;71406;-79
2024/01/24 02:18:35;;;;;;;30.90;20.00;;;;;;;-0.19;97.90;100459.36;105851;1254;61032;-79
2024/01/24 02:21:03;;;;;;;29.50;19.90;;;;;;;-0.23;98.04;100464.08;105868;1257;60516;-78
2024/01/24 02:23:31;;;;;;;31.00;19.10;;;;;;;-0.29;98.45;100464.26;105584;1259;73804;-77
2024/01/24 02:25:58;;;;;;;26.10;17.60;;;;;;;-0.28;98.39;100464.52;105766;1257;69000;-79
2024/01/24 02:28:28;;;;;;;28.80;19.40;;;;;;;-0.25;98.34;100455.98;105724;1259;72711;-78
2024/01/24 02:30:56;;;;;;;28.40;18.90;;;;;;;-0.24;98.32;100455.10;105872;1254;60511;-81
2024/01/24 02:33:23;;;;;;;33.80;22.40;;;;;;;-0.31;98.68;100453.93;105883;1254;60475;-79
2024/01/24 02:35:51;;;;;;;33.00;19.90;;;;;;;-0.32;99.05;100459.38;105826;1254;72378;-81
2024/01/24 02:38:18;;;;;;;29.10;20.40;;;;;;;-0.25;99.06;100465.96;106123;1253;68260;-80
2024/01/24 02:40:46;;;;;;;32.10;20.90;;;;;;;-0.30;99.08;100456.80;107137;1254;71375;-81
2024/01/24 02:43:14;;;;;;;31.10;19.40;;;;;;;-0.29;99.32;100463.17;106553;1254;60888;-81
2024/01/24 02:45:41;;;;;;;35.70;22.60;;;;;;;-0.25;99.01;100458.81;106018;1252;60456;-81
2024/01/24 02:48:09;;;;;;;34.00;20.00;;;;;;;-0.27;99.41;100454.75;107735;1252;74724;-79
2024/01/24 02:50:36;;;;;;;32.30;19.10;;;;;;;-0.30;99.61;100459.94;107442;1254;69185;-80
2024/01/24 02:53:04;;;;;;;33.80;20.50;;;;;;;-0.25;99.52;100456.36;106652;1259;71922;-81
2024/01/24 02:55:32;;;;;;;31.70;21.90;;;;;;;-0.22;99.56;100449.59;107300;1252;60284;-80
2024/01/24 02:57:59;;;;;;;31.90;19.80;;;;;;;-0.25;99.79;100448.18;108653;1253;60070;-82
2024/01/24 03:00:28;;;;;;;35.00;21.40;;;;;;;-0.26;99.76;100451.02;108726;1254;72678;-83
2024/01/24 03:02:56;;;;;;;31.90;20.90;;;;;;;-0.18;99.57;100437.55;107013;1257;69294;-81
2024/01/24 03:05:23;;;;;;;34.40;22.00;;;;;;;-0.16;99.68;100435.01;106128;1257;72714;-83
2024/01/24 03:07:51;;;;;;;36.10;21.90;;;;;;;-0.24;99.84;100433.69;106510;1257;60325;-81
2024/01/24 03:10:20;;;;;;;33.30;20.50;;;;;;;-0.24;99.84;100435.77;106953;1252;60371;-84
2024/01/24 03:12:49;;;;;;;34.50;20.80;;;;;;;-0.21;99.71;100435.78;107548;1254;72871;-85
2024/01/24 03:15:17;;;;;;;35.80;24.30;;;;;;;-0.17;99.77;100440.83;106752;1254;69807;-86
2024/01/24 03:17:45;;;;;;;39.00;21.80;;;;;;;-0.23;99.99;100435.52;107281;1254;71514;-82
2024/01/24 03:20:13;;;;;;;41.50;24.50;;;;;;;-0.23;100.00;100433.63;108836;1252;60151;-86
2024/01/24 03:22:41;;;;;;;37.60;22.80;;;;;;;-0.14;100.00;100434.90;107512;1254;60409;-84
2024/01/24 03:25:11;;;;;;;33.10;21.80;;;;;;;-0.11;99.89;100436.80;108824;1253;72575;-84
2024/01/24 03:27:39;;;;;;;34.00;20.60;;;;;;;-0.10;99.78;100436.91;108842;1253;71092;-84
2024/01/24 03:30:07;;;;;;;33.70;21.50;;;;;;;-0.09;99.98;100432.90;108497;1253;71153;-84
2024/01/24 03:32:34;;;;;;;37.40;22.80;;;;;;;-0.11;100.00;100439.95;108117;1253;59299;-84
2024/01/24 03:35:02;;;;;;;42.20;23.50;;;;;;;-0.15;100.00;100444.89;107828;1252;60035;-83
2024/01/24 03:37:30;;;;;;;38.40;23.00;;;;;;;-0.11;100.00;100436.13;107349;1253;73810;-84
2024/01/24 03:39:58;;;;;;;37.40;22.40;;;;;;;-0.07;100.00;100429.98;106870;1254;69998;-80
2024/01/24 03:42:25;;;;;;;40.80;23.90;;;;;;;-0.08;100.00;100431.09;105997;1254;72566;-81
2024/01/24 03:44:53;;;;;;;38.40;22.80;;;;;;;-0.13;100.00;100431.37;105973;1256;60418;-78
2024/01/24 03:47:20;;;;;;;38.70;24.00;;;;;;;-0.12;100.00;100429.90;105916;1259;60434;-81
2024/01/24 03:49:48;;;;;;;37.30;23.80;;;;;;;-0.10;100.00;100425.79;106058;1257;73876;-81
2024/01/24 03:52:15;;;;;;;41.30;24.30;;;;;;;-0.10;100.00;100429.45;107568;1252;70189;-79
2024/01/24 03:54:43;;;;;;;41.80;23.40;;;;;;;-0.15;100.00;100427.66;109042;1253;71096;-83
2024/01/24 03:57:10;;;;;;;55.80;34.30;;;;;;;-0.12;100.00;100425.77;108226;1254;59764;-81
2024/01/24 03:59:38;;;;;;;38.60;24.70;;;;;;;-0.06;100.00;100418.95;106782;1253;60526;-81
2024/01/24 04:02:05;;;;;;;43.90;25.40;;;;;;;-0.06;100.00;100421.39;106320;1258;75969;-82
2024/01/24 04:04:35;;;;;;;47.50;24.80;;;;;;;-0.11;100.00;100412.98;105799;1258;70496;-80
2024/01/24 04:07:03;;;;;;;37.70;24.20;;;;;;;-0.09;100.00;100404.52;105947;1258;71729;-82
2024/01/24 04:09:30;;;;;;;36.00;23.20;;;;;;;-0.06;100.00;100407.46;107053;1254;60543;-82
2024/01/24 04:11:58;;;;;;;44.00;24.90;;;;;;;-0.07;100.00;100411.02;106146;1252;60476;-83
2024/01/24 04:14:26;;;;;;;42.90;25.00;;;;;;;-0.12;100.00;100411.46;105839;1252;73872;-83
2024/01/24 04:16:53;;;;;;;42.00;24.40;;;;;;;-0.09;100.00;100408.18;105928;1259;68892;-82
2024/01/24 04:19:21;;;;;;;40.70;25.30;;;;;;;-0.05;100.00;100411.80;105933;1254;72169;-82
2024/01/24 04:21:49;;;;;;;38.90;24.60;;;;;;;-0.03;100.00;100411.46;106114;1256;60530;-82
2024/01/24 04:24:16;;;;;;;43.10;26.40;;;;;;;-0.05;100.00;100419.98;106103;1253;60514;-83
2024/01/24 04:26:44;;;;;;;44.80;26.40;;;;;;;-0.06;100.00;100421.77;106154;1255;73884;-81
2024/01/24 04:29:11;;;;;;;48.20;26.80;;;;;;;-0.02;100.00;100419.08;106040;1253;70289;-81
2024/01/24 04:31:41;;;;;;;41.00;24.80;;;;;;;0.02;100.00;100410.38;106221;1254;71391;-81
2024/01/24 04:34:08;;;;;;;44.00;26.90;;;;;;;0.02;100.00;100414.52;107163;1254;60318;-81
2024/01/24 04:36:37;;;;;;;43.20;26.20;;;;;;;-0.03;100.00;100411.98;106421;1253;60534;-80
2024/01/24 04:39:05;;;;;;;41.20;23.20;;;;;;;-0.01;100.00;100416.76;106190;1254;72592;-80
2024/01/24 04:41:33;;;;;;;36.40;23.20;;;;;;;0.04;100.00;100409.38;106073;1254;69979;-81
2024/01/24 04:44:04;;;;;;;40.90;24.90;;;;;;;0.01;100.00;100409.54;105707;1254;71506;-79
2024/01/24 04:46:31;;;;;;;39.90;25.30;;;;;;;-0.05;100.00;100410.90;106075;1253;60958;-80
2024/01/24 04:48:59;;;;;;;40.50;24.90;;;;;;;-0.02;100.00;100403.58;106049;1259;60526;-81
2024/01/24 04:51:28;;;;;;;40.70;24.30;;;;;;;-0.01;100.00;100414.16;108967;1254;73918;-80
2024/01/24 04:53:55;;;;;;;42.30;27.20;;;;;;;-0.06;100.00;100413.24;108127;1253;68892;-80
2024/01/24 04:56:23;;;;;;;42.60;26.80;;;;;;;-0.08;100.00;100412.98;106374;1254;71492;-81
2024/01/24 04:58:50;;;;;;;37.00;23.90;;;;;;;-0.01;100.00;100412.23;106176;1256;60511;-80
2024/01/24 05:01:18;;;;;;;43.10;24.20;;;;;;;0.05;100.00;100409.85;105781;1259;60364;-83
2024/01/24 05:03:46;;;;;;;39.60;23.60;;;;;;;-0.01;100.00;100410.83;105769;1259;73904;-81
2024/01/24 05:06:14;;;;;;;36.10;22.30;;;;;;;-0.00;100.00;100424.56;106079;1258;69165;-81
2024/01/24 05:08:41;;;;;;;40.00;23.40;;;;;;;-0.00;100.00;100425.80;106009;1253;72855;-81
2024/01/24 05:11:09;;;;;;;34.40;20.80;;;;;;;-0.04;99.98;100423.36;106337;1259;60498;-79
2024/01/24 05:13:37;;;;;;;37.90;22.00;;;;;;;-0.07;100.00;100423.38;106129;1253;60373;-81
2024/01/24 05:16:05;;;;;;;32.40;20.60;;;;;;;-0.11;100.00;100426.70;106899;1254;72024;-81
2024/01/24 05:18:32;;;;;;;37.00;22.10;;;;;;;-0.14;100.00;100423.73;105974;1259;68789;-80
2024/01/24 05:21:02;;;;;;;36.80;21.80;;;;;;;-0.16;100.00;100428.95;105849;1254;71447;-80
2024/01/24 05:23:29;;;;;;;37.90;23.00;;;;;;;-0.21;100.00;100425.00;105765;1254;60485;-82
2024/01/24 05:25:57;;;;;;;33.20;19.70;;;;;;;-0.26;100.00;100431.85;105843;1254;60534;-82
2024/01/24 05:28:24;;;;;;;36.60;22.20;;;;;;;-0.28;100.00;100440.86;105878;1256;73795;-82
2024/01/24 05:30:52;;;;;;;37.90;22.90;;;;;;;-0.30;100.00;100450.38;106085;1254;68781;-83
2024/01/24 05:33:20;;;;;;;39.20;22.40;;;;;;;-0.31;100.00;100441.56;106530;1254;74882;-81
2024/01/24 05:35:47;;;;;;;40.20;22.50;;;;;;;-0.35;100.00;100433.23;107306;1252;60542;-82
2024/01/24 05:38:15;;;;;;;38.40;22.80;;;;;;;-0.29;100.00;100424.20;106277;1258;61054;-81
2024/01/24 05:40:43;;;;;;;35.00;21.00;;;;;;;-0.25;100.00;100418.77;105982;1254;72952;-81
2024/01/24 05:43:10;;;;;;;37.80;22.30;;;;;;;-0.29;100.00;100409.23;106086;1254;68380;-82
2024/01/24 05:45:38;;;;;;;36.50;23.20;;;;;;;-0.26;100.00;100408.53;106355;1259;71482;-81
2024/01/24 05:48:06;;;;;;;38.00;23.50;;;;;;;-0.20;100.00;100410.99;107781;1252;60363;-82
2024/01/24 05:50:33;;;;;;;39.00;24.50;;;;;;;-0.17;100.00;100419.75;109230;1253;58849;-82
2024/01/24 05:53:01;;;;;;;38.40;23.20;;;;;;;-0.19;100.00;100421.92;108785;1254;72684;-81
2024/01/24 05:55:28;;;;;;;32.80;20.80;;;;;;;-0.15;100.00;100415.64;108402;1253;68846;-82
2024/01/24 05:57:56;;;;;;;36.10;21.50;;;;;;;-0.09;100.00;100417.40;109348;1253;71569;-81
2024/01/24 06:00:24;;;;;;;30.70;19.50;;;;;;;-0.07;100.00;100420.77;108659;1253;58302;-80
2024/01/24 06:02:51;;;;;;;29.50;18.90;;;;;;;-0.11;100.00;100415.23;106197;1254;60450;-80
2024/01/24 06:05:19;;;;;;;33.70;19.70;;;;;;;-0.08;100.00;100415.27;106226;1254;75046;-81
2024/01/24 06:07:49;;;;;;;32.50;20.60;;;;;;;-0.03;100.00;100420.04;105917;1259;68922;-79
2024/01/24 06:10:17;;;;;;;30.10;18.20;;;;;;;-0.02;100.00;100419.46;105872;1258;71712;-79
2024/01/24 06:12:45;;;;;;;34.80;19.40;;;;;;;-0.07;100.00;100415.73;105882;1257;60957;-81
2024/01/24 06:15:12;;;;;;;30.80;18.90;;;;;;;-0.05;100.00;100410.92;105865;1254;60607;-82
2024/01/24 06:17:40;;;;;;;34.00;20.20;;;;;;;-0.03;100.00;100411.15;105738;1254;72598;-81
2024/01/24 06:20:09;;;;;;;37.40;22.20;;;;;;;-0.03;100.00;100409.54;105819;1259;70343;-80
2024/01/24 06:22:36;;;;;;;32.30;20.90;;;;;;;-0.06;100.00;100408.14;105861;1254;71178;-79
2024/01/24 06:25:07;;;;;;;42.60;23.70;;;;;;;-0.08;100.00;100405.30;105847;1260;60399;-80
2024/01/24 06:27:36;;;;;;;36.80;21.20;;;;;;;-0.02;100.00;100406.39;105790;1259;60461;-81
2024/01/24 06:30:05;;;;;;;37.60;20.00;;;;;;;0.00;100.00;100403.66;106018;1254;72390;-79
2024/01/24 06:32:49;;;;;;;35.10;21.60;;;;;;;0.01;100.00;100395.94;106277;1254;70344;-80
2024/01/24 06:35:17;;;;;;;39.90;23.10;;;;;;;0.01;100.00;100400.30;106020;1256;71438;-81
2024/01/24 06:37:45;;;;;;;36.60;20.60;;;;;;;0.03;100.00;100395.00;105993;1254;60975;-80
2024/01/24 06:40:14;;;;;;;38.00;21.40;;;;;;;0.03;100.00;100388.86;105731;1254;227057;-80
2024/01/24 06:42:41;;;;;;;38.80;19.40;;;;;;;0.06;100.00;100384.02;106291;1254;72599;-81
2024/01/24 06:45:56;;;;;;;37.50;21.10;;;;;;;0.11;100.00;100381.13;104364;1289;600371;-79
2024/01/24 06:48:23;;;;;;;37.90;21.60;;;;;;;0.08;100.00;100386.00;108463;1266;59614;-80
2024/01/24 06:50:53;;;;;;;36.80;22.00;;;;;;;0.14;100.00;100376.23;108235;1265;58987;-82
2024/01/24 06:53:21;;;;;;;36.80;21.30;;;;;;;0.23;100.00;100373.65;107772;1258;71383;-81
2024/01/24 06:55:50;;;;;;;36.60;23.00;;;;;;;0.27;100.00;100378.48;108244;1258;68722;-80
2024/01/24 06:58:18;;;;;;;42.20;23.20;;;;;;;0.29;100.00;100378.22;106956;1263;71449;-81
2024/01/24 07:00:45;;;;;;;37.40;21.60;;;;;;;0.37;100.00;100375.98;105840;1257;156639;-80
2024/01/24 07:03:14;;;;;;;44.80;22.60;;;;;;;0.45;100.00;100370.83;106248;1257;59987;-80
2024/01/24 07:05:43;;;;;;;46.00;24.60;;;;;;;0.49;100.00;100372.31;106070;1266;74327;-81
2024/01/24 07:08:13;;;;;;;45.50;24.40;;;;;;;0.51;100.00;100377.11;106724;1260;69900;-81
2024/01/24 07:10:41;;;;;;;40.60;22.10;;;;;;;0.51;100.00;100379.71;107104;1256;72971;-80
2024/01/24 07:13:08;;;;;;;39.70;23.40;;;;;;;0.60;100.00;100384.08;106453;1251;60950;-80
2024/01/24 07:15:36;;;;;;;45.40;24.80;;;;;;;0.65;100.00;100389.56;106010;1260;60028;-81
2024/01/24 07:18:04;;;;;;;43.70;23.00;;;;;;;0.60;100.00;100396.11;106021;1259;74893;-81
2024/01/24 07:20:31;;;;;;;37.40;22.70;;;;;;;0.57;100.00;100395.23;106005;1257;71589;-81
2024/01/24 07:22:59;;;;;;;43.50;23.40;;;;;;;0.59;100.00;100389.02;106000;1257;74571;-82
2024/01/24 07:25:26;;;;;;;44.70;25.50;;;;;;;0.64;100.00;100388.27;106134;1251;61915;-83
2024/01/24 07:27:54;;;;;;;48.90;29.70;;;;;;;0.66;100.00;100393.14;106083;1256;59723;-80
2024/01/24 07:30:22;;;;;;;60.20;34.70;;;;;;;0.62;100.00;100398.06;106720;1251;73073;-80
2024/01/24 07:32:50;;;;;;;60.20;33.20;;;;;;;0.64;100.00;100385.45;106332;1256;68753;-82
2024/01/24 07:35:18;;;;;;;58.50;30.80;;;;;;;0.69;100.00;100390.20;106279;1264;72471;-80
2024/01/24 07:37:45;;;;;;;47.70;27.30;;;;;;;0.73;100.00;100385.22;106305;1264;61169;-79
2024/01/24 07:40:14;;;;;;;46.70;24.80;;;;;;;0.77;100.00;100378.54;106382;1257;61072;-80
2024/01/24 07:42:42;;;;;;;47.60;26.30;;;;;;;0.80;100.00;100375.98;106534;1259;73292;-80
2024/01/24 07:45:10;;;;;;;47.50;27.30;;;;;;;0.79;100.00;100379.53;107039;1258;68877;-79
2024/01/24 07:47:37;;;;;;;42.90;25.20;;;;;;;0.86;100.00;100372.98;107234;1251;71715;-80
2024/01/24 07:50:07;;;;;;;44.10;26.40;;;;;;;0.94;99.83;100371.79;107288;1250;59691;-80
2024/01/24 07:52:35;;;;;;;41.20;26.80;;;;;;;1.01;99.58;100363.91;106517;1255;60015;-79
2024/01/24 07:55:12;;;;;;;50.90;29.00;;;;;;;1.03;99.29;100356.31;106396;1251;72292;-81
2024/01/24 07:57:41;;;;;;;44.70;27.40;;;;;;;1.04;99.52;100345.96;106478;1255;71147;-79
2024/01/24 08:00:16;;;;;;;44.90;26.10;;;;;;;1.13;99.08;100346.98;107241;1251;72766;-80
2024/01/24 08:02:44;;;;;;;60.30;32.10;;;;;;;1.21;98.56;100350.65;106177;1257;60902;-80
2024/01/24 08:05:13;;;;;;;49.00;28.60;;;;;;;1.20;98.41;100351.06;105987;1257;60050;-80
2024/01/24 08:07:41;;;;;;;44.40;27.60;;;;;;;1.14;98.14;100351.43;106319;1251;73711;-81
2024/01/24 08:10:12;;;;;;;48.80;28.00;;;;;;;1.16;97.98;100345.05;106170;1257;69110;-81
2024/01/24 08:12:39;;;;;;;41.20;29.10;;;;;;;1.17;98.12;100336.41;106135;1251;71428;-81
2024/01/24 08:15:07;;;;;;;44.20;26.10;;;;;;;1.18;98.04;100337.58;106304;1251;59747;-82
2024/01/24 08:17:36;;;;;;;50.40;30.20;;;;;;;1.19;98.13;100337.20;106216;1252;60026;-80
2024/01/24 08:20:08;;;;;;;49.70;29.00;;;;;;;1.14;98.41;100326.34;106172;1251;72262;-80
2024/01/24 08:22:36;;;;;;;46.90;28.00;;;;;;;1.13;98.72;100324.99;106251;1257;68913;-82
2024/01/24 08:25:04;;;;;;;49.80;26.50;;;;;;;1.19;98.35;100321.47;106352;1251;73072;-82
2024/01/24 08:27:31;;;;;;;41.50;27.10;;;;;;;1.23;98.20;100312.49;107661;1257;59628;-82
2024/01/24 08:29:59;;;;;;;48.60;29.30;;;;;;;1.27;98.17;100312.80;106649;1256;61033;-83
2024/01/24 08:32:27;;;;;;;48.10;29.80;;;;;;;1.22;98.29;100306.80;106204;1251;71972;-81
2024/01/24 08:34:54;;;;;;;50.40;29.30;;;;;;;1.22;98.11;100305.05;106191;1255;69734;-82
2024/01/24 08:37:22;;;;;;;44.30;28.50;;;;;;;1.27;97.83;100299.52;106298;1256;74605;-81
2024/01/24 08:39:49;;;;;;;45.20;27.40;;;;;;;1.27;97.68;100303.37;106269;1254;59734;-81
2024/01/24 08:42:17;;;;;;;44.80;28.00;;;;;;;1.23;97.66;100299.77;107207;1251;60429;-80
2024/01/24 08:44:44;;;;;;;42.20;26.80;;;;;;;1.26;97.41;100300.45;108286;1251;72869;-82
2024/01/24 08:47:12;;;;;;;45.50;29.60;;;;;;;1.30;97.47;100283.61;108016;1257;71231;-81
2024/01/24 08:49:39;;;;;;;49.60;31.10;;;;;;;1.29;97.61;100280.05;106819;1258;70306;-81
2024/01/24 08:52:07;;;;;;;47.00;30.80;;;;;;;1.22;97.90;100278.73;107109;1254;62138;-82
2024/01/24 08:54:35;;;;;;;45.80;28.80;;;;;;;1.26;97.99;100278.98;106608;1254;60125;-81
2024/01/24 08:57:06;;;;;;;46.50;29.20;;;;;;;1.28;97.71;100278.02;106768;1250;71738;-81
2024/01/24 08:59:33;;;;;;;49.50;28.20;;;;;;;1.25;97.74;100265.64;106787;1251;70703;-83
2024/01/24 09:02:04;;;;;;;50.00;29.70;;;;;;;1.22;97.76;100261.77;107413;1257;71275;-83
2024/01/24 09:04:33;;;;;;;50.70;29.00;;;;;;;1.22;97.91;100246.61;107512;1253;59729;-83
2024/01/24 09:07:01;;;;;;;46.50;28.70;;;;;;;1.23;98.17;100241.67;108216;1251;61068;-80
2024/01/24 09:09:30;;;;;;;52.70;31.20;;;;;;;1.20;98.08;100242.52;107983;1250;71948;-82
2024/01/24 09:11:59;;;;;;;48.70;29.50;;;;;;;1.20;98.24;100228.44;107396;1256;68668;-82
2024/01/24 09:14:27;;;;;;;52.00;30.30;;;;;;;1.25;98.28;100218.84;107242;1254;72937;-81
2024/01/24 09:16:55;;;;;;;54.30;32.10;;;;;;;1.24;98.28;100215.59;107314;1251;59611;-81
2024/01/24 09:19:23;;;;;;;52.20;30.20;;;;;;;1.21;98.30;100200.65;106037;1253;59644;-80
2024/01/24 09:21:51;;;;;;;49.90;31.20;;;;;;;1.25;98.33;100201.80;105941;1251;71830;-80
2024/01/24 09:24:19;;;;;;;50.30;30.80;;;;;;;1.27;98.05;100187.82;105874;1251;69867;-78
2024/01/24 09:26:47;;;;;;;50.20;28.60;;;;;;;1.24;98.16;100179.64;105946;1257;71344;-79
2024/01/24 09:29:16;;;;;;;50.00;30.50;;;;;;;1.26;98.28;100175.70;105987;1254;59806;-80
2024/01/24 09:31:45;;;;;;;52.80;31.40;;;;;;;1.29;98.21;100168.15;105823;1251;60216;-78
2024/01/24 09:34:13;;;;;;;50.10;28.20;;;;;;;1.29;98.49;100171.49;106053;1250;72705;-77
2024/01/24 09:36:41;;;;;;;46.50;28.30;;;;;;;1.25;98.52;100164.91;106150;1250;68730;-79
2024/01/24 09:39:09;;;;;;;50.00;29.50;;;;;;;1.27;98.19;100158.69;106501;1251;72976;-77
2024/01/24 09:41:43;;;;;;;49.50;28.70;;;;;;;1.26;98.06;100152.09;108312;1251;59721;-79
2024/01/24 09:44:14;;;;;;;;;;;;;;;1.28;98.41;100151.30;107947;1254;59347;-76
2024/01/24 09:46:42;;;;;;;51.80;30.90;;;;;;;1.32;98.31;100139.84;106153;1251;73400;-76
2024/01/24 09:49:09;;;;;;;50.20;26.80;;;;;;;1.31;98.31;100137.34;105929;1251;72542;-76
2024/01/24 09:51:38;;;;;;;43.70;26.40;;;;;;;1.32;98.12;100132.89;105725;1251;72953;-76
2024/01/24 09:54:06;;;;;;;43.90;29.00;;;;;;;1.36;97.97;100124.77;106022;1257;60032;-75
2024/01/24 09:56:35;;;;;;;50.80;30.80;;;;;;;1.34;97.93;100121.96;105937;1251;59811;-76
2024/01/24 09:59:04;;;;;;;52.70;32.10;;;;;;;1.33;98.16;100117.30;106488;1257;72777;-76
2024/01/24 10:01:34;;;;;;;47.40;29.40;;;;;;;1.37;97.97;100129.07;106394;1254;69202;-77
2024/01/24 10:04:01;;;;;;;49.90;28.70;;;;;;;1.38;97.84;100116.11;106078;1257;71732;-76
2024/01/24 10:06:29;;;;;;;49.60;28.80;;;;;;;1.38;98.03;100105.47;105920;1256;59582;-76
2024/01/24 10:08:57;;;;;;;49.40;28.60;;;;;;;1.46;97.96;100101.77;105976;1251;59765;-76
2024/01/24 10:11:25;;;;;;;45.90;27.50;;;;;;;1.53;97.31;100114.05;106090;1257;74748;-76
2024/01/24 10:13:59;;;;;;;49.40;30.60;;;;;;;1.54;96.45;100096.17;106121;1251;70821;-76
2024/01/24 10:16:27;;;;;;;40.70;26.60;;;;;;;1.56;96.62;100086.48;105960;1251;74752;-76
2024/01/24 10:18:55;;;;;;;52.80;28.90;;;;;;;1.53;96.60;100093.98;105885;1254;59745;-77
2024/01/24 10:21:23;;;;;;;48.70;28.40;;;;;;;1.50;96.49;100086.02;106078;1251;61219;-77
2024/01/24 10:23:54;;;;;;;50.70;31.80;;;;;;;1.53;96.36;100068.49;105871;1251;71904;-76
2024/01/24 10:26:21;;;;;;;60.10;35.60;;;;;;;1.55;96.08;100064.38;106027;1257;70720;-76
2024/01/24 10:28:50;;;;;;;52.90;32.10;;;;;;;1.55;96.29;100058.95;105935;1257;72802;-76
2024/01/24 10:31:21;;;;;;;59.60;34.40;;;;;;;1.52;96.43;100061.42;105875;1250;60342;-78
2024/01/24 10:33:53;;;;;;;56.00;34.00;;;;;;;1.56;96.73;100051.40;106144;1251;60104;-76
2024/01/24 10:36:21;;;;;;;61.00;33.80;;;;;;;1.65;96.38;100049.57;106691;1251;73034;-76
2024/01/24 10:39:00;;;;;;;51.00;30.70;;;;;;;1.73;96.34;100037.80;107658;1251;69297;-75
2024/01/24 10:41:30;;;;;;;50.10;32.00;;;;;;;1.87;95.95;100039.14;107741;1254;72417;-76
2024/01/24 10:44:07;;;;;;;50.90;30.30;;;;;;;1.98;95.76;100028.60;106195;1254;60367;-77
2024/01/24 10:46:38;;;;;;;54.80;30.90;;;;;;;2.12;94.29;100025.89;105970;1257;60941;-76
2024/01/24 10:49:06;;;;;;;51.40;31.30;;;;;;;2.21;94.09;100012.86;105824;1251;72009;-76
2024/01/24 10:51:34;;;;;;;55.80;31.60;;;;;;;2.29;94.06;100005.65;105799;1251;70289;-77
2024/01/24 10:54:04;;;;;;;53.20;30.00;;;;;;;2.36;94.17;99997.48;105844;1254;73054;-76
2024/01/24 10:56:32;;;;;;;45.90;29.00;;;;;;;2.54;93.21;99992.52;106137;1251;60460;-78
2024/01/24 10:59:03;;;;;;;44.50;29.10;;;;;;;2.80;91.65;99991.90;106458;1250;60617;-76
2024/01/24 11:01:31;;;;;;;46.00;27.90;;;;;;;2.98;90.41;99992.48;106785;1251;72724;-76
2024/01/24 11:03:59;;;;;;;53.90;30.40;;;;;;;3.05;89.43;99980.38;105809;1254;70433;-75
2024/01/24 11:06:27;;;;;;;46.00;28.00;;;;;;;3.14;89.45;99973.25;105881;1255;71495;-75